No Wait Weather (KNEBELLE1) Station Historical Data
 
Daily Summary for August 21, 2019 Units:  English    Metric   Both
Daily Weekly Monthly Yearly Custom
  Current: High: Low: Average:
Temperature: 84.5 °F 84.9 °F 54.8 °F 66.5 °F
Dew Point: 58.2 °F 62.8 °F 50.6 °F 55.4 °F
Humidity: 41% 91% 41% 71%
Wind Speed: 2mph 6mph 0mph 0.9mph
Wind Gust: 8mph 12mph - -
WindNNE - - ESE
Pressure: 29.86 in 29.99 in 29.86 in -
Precipitation: 0 in      
Historical Graphs
 
 
Tabular Data for August 21, 2019
Time Temperature Dew Point Pressure Wind Wind Speed Wind Gust Humidity Rainfall Rate (Hourly) solar
00:00 60.5 °F 54.3 °F 29.98 in Calm     80% 0 in 0.00 W/m2
00:05 60.4 °F 54.2 °F 29.98 in Calm     80% 0 in 0.00 W/m2
00:10 60.2 °F 54.3 °F 29.99 in Calm     81% 0 in 0.00 W/m2
00:15 60.1 °F 54.2 °F 29.98 in Calm     81% 0 in 0.00 W/m2
00:20 59.9 °F 54 °F 29.99 in Calm     81% 0 in 0.00 W/m2
00:25 59.8 °F 54 °F 29.99 in Calm     81% 0 in 0.00 W/m2
00:30 59.6 °F 53.8 °F 29.98 in Calm     81% 0 in 0.00 W/m2
00:35 59.5 °F 53.7 °F 29.98 in Calm     81% 0 in 0.00 W/m2
00:40 59.3 °F 53.8 °F 29.98 in Calm     82% 0 in 0.00 W/m2
00:45 59.2 °F 53.7 °F 29.98 in Calm     82% 0 in 0.00 W/m2
00:50 59.1 °F 53.7 °F 29.98 in Calm     82% 0 in 0.00 W/m2
00:55 58.9 °F 53.1 °F 29.98 in Calm     81% 0 in 0.00 W/m2
01:00 58.9 °F 53.1 °F 29.98 in Calm     81% 0 in 0.00 W/m2
01:05 58.7 °F 52.9 °F 29.98 in Calm     81% 0 in 0.00 W/m2
01:10 58.6 °F 52.8 °F 29.98 in Calm     81% 0 in 0.00 W/m2
01:15 58.4 °F 52.6 °F 29.98 in Calm     81% 0 in 0.00 W/m2
01:20 58.4 °F 52.9 °F 29.98 in Calm     82% 0 in 0.00 W/m2
01:25 58.3 °F 52.8 °F 29.98 in Calm     82% 0 in 0.00 W/m2
01:30 58.1 °F 52.6 °F 29.98 in Calm     82% 0 in 0.00 W/m2
01:35 58.1 °F 52.6 °F 29.98 in Calm     82% 0 in 0.00 W/m2
01:40 58 °F 52.5 °F 29.98 in Calm     82% 0 in 0.00 W/m2
01:45 57.8 °F 52.3 °F 29.98 in Calm     82% 0 in 0.00 W/m2
01:50 57.8 °F 52.3 °F 29.97 in Calm     82% 0 in 0.00 W/m2
01:55 57.6 °F 52.1 °F 29.97 in Calm     82% 0 in 0.00 W/m2
02:00 57.5 °F 52 °F 29.97 in Calm     82% 0 in 0.00 W/m2
02:05 57.4 °F 52 °F 29.97 in Calm     82% 0 in 0.00 W/m2
02:10 57.3 °F 51.9 °F 29.97 in Calm     82% 0 in 0.00 W/m2
02:15 57.2 °F 51.4 °F 29.97 in Calm     81% 0 in 0.00 W/m2
02:20 57 °F 51.2 °F 29.97 in Calm     81% 0 in 0.00 W/m2
02:25 57 °F 51.2 °F 29.97 in Calm     81% 0 in 0.00 W/m2
02:30 56.9 °F 51.2 °F 29.97 in Calm     81% 0 in 0.00 W/m2
02:35 56.9 °F 51.1 °F 29.97 in Calm     81% 0 in 0.00 W/m2
02:40 56.7 °F 50.9 °F 29.97 in Calm     81% 0 in 0.00 W/m2
02:45 56.7 °F 50.9 °F 29.97 in Calm     81% 0 in 0.00 W/m2
02:50 56.6 °F 50.9 °F 29.96 in Calm     81% 0 in 0.00 W/m2
02:55 56.6 °F 50.8 °F 29.97 in Calm     81% 0 in 0.00 W/m2
03:00 56.6 °F 51.2 °F 29.97 in Calm     82% 0 in 0.00 W/m2
03:05 56.5 °F 50.7 °F 29.97 in Calm     81% 0 in 0.00 W/m2
03:10 56.3 °F 50.9 °F 29.97 in Calm     82% 0 in 0.00 W/m2
03:15 56.3 °F 50.9 °F 29.97 in Calm     82% 0 in 0.00 W/m2
03:20 56.3 °F 50.9 °F 29.97 in Calm     82% 0 in 0.00 W/m2
03:25 56.2 °F 50.8 °F 29.97 in Calm     82% 0 in 0.00 W/m2
03:30 56.2 °F 50.8 °F 29.97 in Calm     82% 0 in 0.00 W/m2
03:35 56.2 °F 51.1 °F 29.97 in Calm     83% 0 in 0.00 W/m2
03:40 56.2 °F 51.1 °F 29.97 in Calm     83% 0 in 0.00 W/m2
03:45 56 °F 50.9 °F 29.97 in Calm     83% 0 in 0.00 W/m2
03:50 56.1 °F 51 °F 29.97 in Calm     83% 0 in 0.00 W/m2
03:55 56 °F 50.9 °F 29.97 in Calm     83% 0 in 0.00 W/m2
04:00 56 °F 51.2 °F 29.97 in Calm     84% 0 in 0.00 W/m2
04:05 56 °F 51.2 °F 29.97 in Calm     84% 0 in 0.00 W/m2
04:10 56 °F 51.2 °F 29.97 in Calm     84% 0 in 0.00 W/m2
04:15 55.9 °F 51.1 °F 29.96 in Calm     84% 0 in 0.00 W/m2
04:20 55.9 °F 51.1 °F 29.96 in Calm     84% 0 in 0.00 W/m2
04:25 55.9 °F 51.1 °F 29.96 in Calm     84% 0 in 0.00 W/m2
04:30 55.7 °F 51 °F 29.96 in Calm     84% 0 in 0.00 W/m2
04:35 55.7 °F 50.9 °F 29.96 in Calm     84% 0 in 0.00 W/m2
04:40 55.7 °F 50.9 °F 29.96 in Calm     84% 0 in 0.00 W/m2
04:45 55.6 °F 50.9 °F 29.96 in Calm     84% 0 in 0.00 W/m2
04:50 55.6 °F 50.8 °F 29.96 in Calm     84% 0 in 0.00 W/m2
04:55 55.6 °F 50.8 °F 29.96 in Calm     84% 0 in 0.00 W/m2
05:00 55.6 °F 50.8 °F 29.96 in Calm     84% 0 in 0.00 W/m2
05:05 55.4 °F 50.6 °F 29.96 in Calm     84% 0 in 0.00 W/m2
05:10 55.4 °F 50.6 °F 29.96 in Calm     84% 0 in 0.00 W/m2
05:15 55.4 °F 50.6 °F 29.96 in Calm     84% 0 in 0.00 W/m2
05:20 55.4 °F 51 °F 29.96 in Calm     85% 0 in 0.00 W/m2
05:25 55.4 °F 51 °F 29.96 in Calm     85% 0 in 0.00 W/m2
05:30 55.4 °F 51 °F 29.96 in Calm     85% 0 in 0.00 W/m2
05:35 55.3 °F 50.9 °F 29.96 in Calm     85% 0 in 0.00 W/m2
05:40 55.3 °F 50.9 °F 29.96 in Calm     85% 0 in 0.00 W/m2
05:45 55.3 °F 50.9 °F 29.96 in Calm     85% 0 in 0.00 W/m2
05:50 55.3 °F 50.9 °F 29.96 in Calm     85% 0 in 0.00 W/m2
05:55 55.1 °F 50.7 °F 29.96 in Calm     85% 0 in 0.00 W/m2
06:00 55.1 °F 50.7 °F 29.96 in Calm     85% 0 in 0.00 W/m2
06:05 55.1 °F 50.7 °F 29.96 in Calm     85% 0 in 0.00 W/m2
06:10 55 °F 50.6 °F 29.96 in Calm     85% 0 in 0.00 W/m2
06:15 55 °F 50.9 °F 29.97 in Calm     86% 0 in 0.00 W/m2
06:20 55 °F 50.9 °F 29.97 in Calm     86% 0 in 0.00 W/m2
06:25 55 °F 50.9 °F 29.96 in Calm     86% 0 in 0.00 W/m2
06:30 55 °F 50.9 °F 29.97 in Calm     86% 0 in 0.00 W/m2
06:35 55 °F 50.9 °F 29.97 in Calm     86% 0 in 5.00 W/m2
06:40 55 °F 50.9 °F 29.97 in Calm     86% 0 in 7.00 W/m2
06:45 54.9 °F 51.1 °F 29.97 in Calm     87% 0 in 11.00 W/m2
06:50 54.8 °F 51 °F 29.97 in Calm     87% 0 in 14.00 W/m2
06:55 54.8 °F 51 °F 29.97 in Calm     87% 0 in 21.00 W/m2
07:00 54.8 °F 51.1 °F 29.97 in Calm     87% 0 in 25.00 W/m2
07:05 55 °F 51.2 °F 29.97 in Calm     87% 0 in 26.00 W/m2
07:10 55 °F 51.2 °F 29.97 in Calm     87% 0 in 37.00 W/m2
07:15 55 °F 51.2 °F 29.97 in Calm     87% 0 in 95.00 W/m2
07:20 55 °F 51.2 °F 29.97 in Calm     87% 0 in 107.00 W/m2
07:25 55.1 °F 51.3 °F 29.97 in Calm     87% 0 in 99.00 W/m2
07:30 55.1 °F 51.3 °F 29.97 in Calm     87% 0 in 134.00 W/m2
07:35 55.1 °F 51.3 °F 29.97 in Calm     87% 0 in 150.00 W/m2
07:40 55.2 °F 51.4 °F 29.98 in Calm     87% 0 in 164.00 W/m2
07:45 55.3 °F 51.5 °F 29.98 in Calm     87% 0 in 181.00 W/m2
07:50 55.5 °F 52 °F 29.98 in Calm     88% 0 in 199.00 W/m2
07:55 55.7 °F 52.2 °F 29.98 in Calm     88% 0 in 218.00 W/m2
08:00 56 °F 52.8 °F 29.98 in Calm     89% 0 in 238.00 W/m2
08:05 56.4 °F 53.5 °F 29.98 in Calm     90% 0 in 250.00 W/m2
08:10 56.7 °F 54.1 °F 29.98 in Calm     91% 0 in 267.00 W/m2
08:15 57.2 °F 54.6 °F 29.98 in Calm     91% 0 in 282.00 W/m2
08:20 57.5 °F 54.9 °F 29.99 in Calm     91% 0 in 296.00 W/m2
08:25 58 °F 55.4 °F 29.99 in Calm     91% 0 in 310.00 W/m2
08:30 58.4 °F 55.8 °F 29.99 in Calm     91% 0 in 324.00 W/m2
08:35 58.6 °F 56 °F 29.99 in Calm     91% 0 in 340.00 W/m2
08:40 58.9 °F 56.3 °F 29.99 in Calm     91% 0 in 355.00 W/m2
08:45 59.3 °F 56.4 °F 29.98 in Calm     90% 0 in 370.00 W/m2
08:50 59.5 °F 56.3 °F 29.98 in Calm     89% 0 in 384.00 W/m2
08:55 59.8 °F 56.6 °F 29.98 in Calm     89% 0 in 399.00 W/m2
09:00 60.1 °F 56.8 °F 29.98 in ENE 2 mph 5 mph 89% 0 in 412.00 W/m2
09:05 60.4 °F 57.1 °F 29.98 in Calm   2 mph 89% 0 in 426.00 W/m2
09:10 60.7 °F 57.1 °F 29.98 in Calm     88% 0 in 440.00 W/m2
09:15 61 °F 57.4 °F 29.98 in Calm   3 mph 88% 0 in 454.00 W/m2
09:20 61.3 °F 57.4 °F 29.98 in ESE 1 mph 3 mph 87% 0 in 466.00 W/m2
09:25 61.6 °F 57 °F 29.98 in NE 2 mph 3 mph 85% 0 in 482.00 W/m2
09:30 62 °F 56.8 °F 29.98 in Calm   5 mph 83% 0 in 494.00 W/m2
09:35 62.4 °F 57.5 °F 29.99 in Calm   2 mph 84% 0 in 509.00 W/m2
09:40 62.7 °F 57.1 °F 29.98 in Calm   3 mph 82% 0 in 521.00 W/m2
09:45 63.2 °F 57.6 °F 29.98 in Calm   2 mph 82% 0 in 533.00 W/m2
09:50 63.5 °F 57.2 °F 29.98 in Calm   4 mph 80% 0 in 549.00 W/m2
09:55 63.9 °F 57.3 °F 29.98 in Calm   3 mph 79% 0 in 561.00 W/m2
10:00 64.2 °F 57.2 °F 29.98 in Calm     78% 0 in 575.00 W/m2
10:05 64.6 °F 57.6 °F 29.98 in ENE 1 mph 3 mph 78% 0 in 584.00 W/m2
10:10 65 °F 57.6 °F 29.98 in Calm   2 mph 77% 0 in 598.00 W/m2
10:15 65.3 °F 57.9 °F 29.98 in Calm   5 mph 77% 0 in 612.00 W/m2
10:20 65.7 °F 57.2 °F 29.98 in NE 2 mph 7 mph 74% 0 in 621.00 W/m2
10:25 66.2 °F 57.3 °F 29.98 in NNE 1 mph 3 mph 73% 0 in 633.00 W/m2
10:30 66.8 °F 57.8 °F 29.98 in NNE 2 mph 4 mph 73% 0 in 642.00 W/m2
10:35 67.1 °F 57.4 °F 29.97 in Calm   3 mph 71% 0 in 651.00 W/m2
10:40 67.6 °F 57.9 °F 29.97 in NE 1 mph 5 mph 71% 0 in 663.00 W/m2
10:45 67.9 °F 58.2 °F 29.97 in Calm   5 mph 71% 0 in 674.00 W/m2
10:50 68.4 °F 58.2 °F 29.97 in East 1 mph 3 mph 70% 0 in 684.00 W/m2
10:55 68.8 °F 58.6 °F 29.97 in Calm   2 mph 70% 0 in 693.00 W/m2
11:00 69.3 °F 57.8 °F 29.96 in North 2 mph 5 mph 67% 0 in 702.00 W/m2
11:05 69.8 °F 57.9 °F 29.96 in NNW 1 mph 3 mph 66% 0 in 713.00 W/m2
11:10 70.3 °F 57.5 °F 29.96 in North 2 mph 5 mph 64% 0 in 720.00 W/m2
11:15 70.8 °F 58.4 °F 29.96 in Calm   3 mph 65% 0 in 728.00 W/m2
11:20 71.1 °F 58.7 °F 29.96 in NE 1 mph 3 mph 65% 0 in 737.00 W/m2
11:25 71.6 °F 57.4 °F 29.95 in North 2 mph 6 mph 61% 0 in 746.00 W/m2
11:30 72.1 °F 58.4 °F 29.95 in NNW 1 mph 3 mph 62% 0 in 750.00 W/m2
11:35 72.5 °F 57.8 °F 29.95 in NE 0.4 mph 1.2 mph 60% 0 in 758.00 W/m2
11:40 73 °F 58.3 °F 29.95 in North 2 mph 6 mph 60% 0 in 764.00 W/m2
11:45 73.3 °F 57.6 °F 29.95 in North 2 mph 5 mph 58% 0 in 769.00 W/m2
11:50 74 °F 57.8 °F 29.95 in North 2 mph 5 mph 57% 0 in 779.00 W/m2
11:55 74.6 °F 57.8 °F 29.95 in NNE 3 mph 8 mph 56% 0 in 783.00 W/m2
12:00 74.9 °F 58.7 °F 29.94 in Calm   7 mph 57% 0 in 787.00 W/m2
12:05 75.3 °F 58.1 °F 29.94 in NNE 3 mph 6 mph 55% 0 in 790.00 W/m2
12:10 76 °F 58.2 °F 29.94 in NNE 2 mph 6 mph 54% 0 in 794.00 W/m2
12:15 76.5 °F 58.1 °F 29.94 in North 3 mph 8 mph 53% 0 in 795.00 W/m2
12:20 77 °F 58.6 °F 29.94 in NNE 2 mph 4 mph 53% 0 in 799.00 W/m2
12:25 77.4 °F 58.4 °F 29.94 in North 2 mph 6 mph 52% 0 in 802.00 W/m2
12:30 77.9 °F 58.8 °F 29.94 in North 3 mph 8 mph 52% 0 in 809.00 W/m2
12:35 78.3 °F 59.2 °F 29.93 in Calm   6 mph 52% 0 in 813.00 W/m2
12:40 78.6 °F 59 °F 29.93 in NNE 2 mph 7 mph 51% 0 in 818.00 W/m2
12:45 79.2 °F 59 °F 29.93 in NNW 3 mph 7 mph 50% 0 in 822.00 W/m2
12:50 79.6 °F 59.3 °F 29.92 in NNW 1 mph 6 mph 50% 0 in 832.00 W/m2
12:55 79.9 °F 59.6 °F 29.92 in North 2 mph 5 mph 50% 0 in 843.00 W/m2
13:00 80.1 °F 59.2 °F 29.92 in NNE 2 mph 7 mph 49% 0 in 757.00 W/m2
13:05 80.5 °F 60.1 °F 29.92 in NE 2 mph 8 mph 50% 0 in 779.00 W/m2
13:10 80.9 °F 59.9 °F 29.92 in NNE 2 mph 8 mph 49% 0 in 809.00 W/m2
13:15 81.2 °F 59.6 °F 29.92 in North 3 mph 7 mph 48% 0 in 827.00 W/m2
13:20 81.6 °F 60 °F 29.92 in North 2 mph 6 mph 48% 0 in 823.00 W/m2
13:25 81.9 °F 60.3 °F 29.92 in North 2 mph 7 mph 48% 0 in 816.00 W/m2
13:30 82.4 °F 60.1 °F 29.92 in North 3 mph 8 mph 47% 0 in 801.00 W/m2
13:35 82.6 °F 60.3 °F 29.92 in NNE 1 mph 5 mph 47% 0 in 795.00 W/m2
13:40 82.8 °F 61.1 °F 29.92 in NNE 3 mph 7 mph 48% 0 in 706.00 W/m2
13:45 83 °F 60.7 °F 29.91 in NNE 4.1 mph 6.9 mph 47% 0 in 794.00 W/m2
13:50 83.3 °F 60.9 °F 29.91 in NNE 1 mph 7 mph 47% 0 in 792.00 W/m2
13:55 83.4 °F 61.1 °F 29.91 in NNE 3 mph 7 mph 47% 0 in 804.00 W/m2
14:00 83.6 °F 60.6 °F 29.91 in North 2 mph 6 mph 46% 0 in 799.00 W/m2
14:05 83.8 °F 61.4 °F 29.91 in North 3 mph 7 mph 47% 0 in 795.00 W/m2
14:10 84 °F 61 °F 29.91 in NNW 3 mph 8 mph 46% 0 in 765.00 W/m2
14:15 84.1 °F 61.1 °F 29.91 in NNW 2 mph 8 mph 46% 0 in 750.00 W/m2
14:20 84.1 °F 61.1 °F 29.91 in North 5 mph 8 mph 46% 0 in 779.00 W/m2
14:25 84.5 °F 61.4 °F 29.90 in NNE 3 mph 12 mph 46% 0 in 778.00 W/m2
14:30 84.5 °F 62.1 °F 29.90 in NNE 1 mph 12 mph 47% 0 in 776.00 W/m2
14:35 84.5 °F 61.4 °F 29.90 in NNE 2 mph 8 mph 46% 0 in 767.00 W/m2
14:40 84.7 °F 62.2 °F 29.90 in NNE 3 mph 7 mph 47% 0 in 760.00 W/m2
14:45 84.7 °F 62.2 °F 29.90 in NNE 2 mph 12 mph 47% 0 in 753.00 W/m2
14:50 84.7 °F 62.8 °F 29.90 in NE 3 mph 7 mph 48% 0 in 746.00 W/m2
14:55 84.7 °F 62.2 °F 29.89 in NE 3 mph 8 mph 47% 0 in 739.00 W/m2
15:00 84.9 °F 61.8 °F 29.89 in NE 3 mph 7 mph 46% 0 in 730.00 W/m2
15:05 84.9 °F 62.4 °F 29.89 in NNE 5 mph 8 mph 47% 0 in 721.00 W/m2
15:10 84.9 °F 61.2 °F 29.89 in NE 6 mph 10 mph 45% 0 in 716.00 W/m2
15:15 84.9 °F 61.8 °F 29.89 in NNE 3 mph 7 mph 46% 0 in 702.00 W/m2
15:20 84.9 °F 61.8 °F 29.89 in NNW 3 mph 8 mph 46% 0 in 695.00 W/m2
15:25 84.7 °F 61.6 °F 29.89 in NNW 3 mph 8 mph 46% 0 in 686.00 W/m2
15:30 84.7 °F 60.4 °F 29.89 in NNW 3.4 mph 5.8 mph 44% 0 in 676.00 W/m2
15:35 84.7 °F 61 °F 29.88 in North 3 mph 9 mph 45% 0 in 663.00 W/m2
15:40 84.7 °F 60.4 °F 29.88 in NNE 2 mph 9 mph 44% 0 in 653.00 W/m2
15:45 84.7 °F 59.7 °F 29.88 in North 5 mph 7 mph 43% 0 in 644.00 W/m2
15:50 84.7 °F 59.7 °F 29.88 in NNW 5 mph 8 mph 43% 0 in 632.00 W/m2
15:55 84.7 °F 59.1 °F 29.88 in North 5 mph 8 mph 42% 0 in 621.00 W/m2
16:00 84.7 °F 59.1 °F 29.88 in North 1 mph 7 mph 42% 0 in 607.00 W/m2
16:05 84.7 °F 58.4 °F 29.88 in North 2 mph 7 mph 41% 0 in 600.00 W/m2
16:10 84.7 °F 58.4 °F 29.88 in North 3 mph 8 mph 41% 0 in 586.00 W/m2
16:15 84.7 °F 58.4 °F 29.87 in North 3 mph 8 mph 41% 0 in 574.00 W/m2
16:20 84.7 °F 59.7 °F 29.87 in NNE 2 mph 6 mph 43% 0 in 560.00 W/m2
16:25 84.6 °F 60.3 °F 29.87 in NNE 3 mph 7 mph 44% 0 in 547.00 W/m2
16:30 84.5 °F 59.6 °F 29.87 in North 3 mph 10 mph 43% 0 in 533.00 W/m2
16:35 84.6 °F 59.6 °F 29.87 in North 2 mph 6 mph 43% 0 in 519.00 W/m2
16:40 84.5 °F 58.9 °F 29.87 in NNE 1 mph 7 mph 42% 0 in 507.00 W/m2
16:45 84.5 °F 58.9 °F 29.87 in NNE 3 mph 7 mph 42% 0 in 493.00 W/m2
16:50 84.5 °F 58.9 °F 29.87 in NNE 2 mph 9 mph 42% 0 in 477.00 W/m2
16:55 84.5 °F 58.9 °F 29.87 in NNE 3 mph 8 mph 42% 0 in 456.00 W/m2
17:00 84.5 °F 58.2 °F 29.87 in NNE 2 mph 10 mph 41% 0 in 422.00 W/m2
17:05 84.5 °F 58.9 °F 29.87 in NE 2 mph 7 mph 42% 0 in 387.00 W/m2
17:10 84.5 °F 58.2 °F 29.87 in NNE 1 mph 8 mph 41% 0 in 354.00 W/m2
17:15 84.5 °F 58.2 °F 29.86 in NNE 2 mph 8 mph 41% 0 in 329.00 W/m2
Juneau County Weather
Compliments of Weather Underground - 2 mb